ADDS TAF Data INFO
IDs: Format: Raw Decoded Include METARs

Data at: 0426 UTC 21 Jan 2018

KTUS 210353Z 00000KT 10SM OVC080 08/04 A3002 RMK AO2 SLP150 T00780044

KTUS 210133Z 2102/2124 05004KT P6SM FEW020 BKN060
  FM210400 26010KT P6SM SCT060
  FM210700 14005KT P6SM SKC